createdAt,value
2017-09-10T00:01:52.342Z,91.50
2017-09-10T00:04:20.210Z,90.70
2017-09-10T00:06:48.078Z,90.30
2017-09-10T00:09:15.945Z,90.10
2017-09-10T00:11:43.813Z,90.00
2017-09-10T00:14:11.679Z,90.00
2017-09-10T00:16:39.548Z,89.50
2017-09-10T00:19:07.414Z,90.40
2017-09-10T00:21:35.282Z,90.60
2017-09-10T00:24:03.149Z,91.00
2017-09-10T00:26:31.024Z,92.10
2017-09-10T00:28:58.883Z,92.80
2017-09-10T00:31:26.751Z,93.10
2017-09-10T00:33:54.618Z,93.30
2017-09-10T00:36:22.486Z,92.40
2017-09-10T00:38:50.355Z,91.20
2017-09-10T00:41:18.221Z,91.00
2017-09-10T00:43:46.087Z,90.90
2017-09-10T00:46:13.955Z,90.70
2017-09-10T00:48:41.823Z,90.50
2017-09-10T00:51:09.690Z,91.10
2017-09-10T00:53:37.556Z,90.70
2017-09-10T00:56:05.425Z,90.70
2017-09-10T00:58:33.291Z,90.80
2017-09-10T01:01:01.159Z,90.30
2017-09-10T01:03:29.025Z,90.40
2017-09-10T01:05:56.893Z,90.70
2017-09-10T01:08:24.760Z,91.20
2017-09-10T01:10:52.627Z,91.20
2017-09-10T01:13:20.496Z,91.00
2017-09-10T01:15:48.364Z,90.80
2017-09-10T01:18:16.232Z,91.20
2017-09-10T01:20:44.101Z,91.70
2017-09-10T01:23:11.970Z,92.20
2017-09-10T01:25:39.836Z,92.30
2017-09-10T01:28:07.701Z,92.40
2017-09-10T01:30:35.568Z,92.40
2017-09-10T01:33:03.434Z,92.30
2017-09-10T01:35:31.301Z,92.40
2017-09-10T01:37:59.168Z,92.10
2017-09-10T01:40:27.036Z,91.70
2017-09-10T01:42:54.902Z,91.60
2017-09-10T01:45:22.770Z,91.50
2017-09-10T01:47:50.638Z,91.40
2017-09-10T01:50:18.505Z,91.40
2017-09-10T01:52:46.371Z,91.30
2017-09-10T01:55:14.239Z,91.40
2017-09-10T01:57:42.107Z,91.20
2017-09-10T02:00:09.974Z,91.20
2017-09-10T02:02:37.840Z,91.10
2017-09-10T02:05:05.708Z,91.90
2017-09-10T02:07:33.577Z,92.30
2017-09-10T02:10:01.443Z,92.10
2017-09-10T02:12:29.310Z,92.30
2017-09-10T02:14:57.177Z,92.30
2017-09-10T02:17:25.044Z,92.00
2017-09-10T02:19:52.913Z,92.30
2017-09-10T02:22:20.779Z,92.20
2017-09-10T02:24:48.647Z,92.10
2017-09-10T02:27:16.514Z,91.60
2017-09-10T02:29:44.381Z,91.20
2017-09-10T02:32:12.249Z,91.10
2017-09-10T02:34:40.117Z,90.80
2017-09-10T02:37:07.984Z,90.70
2017-09-10T02:39:35.850Z,91.10
2017-09-10T02:42:03.719Z,91.20
2017-09-10T02:44:31.585Z,91.90
2017-09-10T02:46:59.456Z,92.30
2017-09-10T02:49:27.320Z,92.40
2017-09-10T02:51:55.124Z,92.60
2017-09-10T02:54:23.703Z,92.60
2017-09-10T02:56:52.355Z,92.60
2017-09-10T02:59:20.216Z,92.60
2017-09-10T03:01:48.090Z,92.80
2017-09-10T03:04:15.956Z,92.80
2017-09-10T03:06:43.825Z,92.60
2017-09-10T03:09:11.691Z,92.10
2017-09-10T03:11:39.558Z,91.70
2017-09-10T03:14:07.426Z,91.30
2017-09-10T03:16:35.294Z,91.10
2017-09-10T03:19:03.161Z,90.90
2017-09-10T03:21:31.028Z,90.60
2017-09-10T03:23:58.895Z,90.80
2017-09-10T03:26:26.763Z,91.00
2017-09-10T03:28:54.631Z,91.10
2017-09-10T03:31:22.497Z,91.00
2017-09-10T03:33:50.364Z,90.80
2017-09-10T03:36:18.237Z,90.80
2017-09-10T03:38:46.098Z,91.30
2017-09-10T03:41:13.967Z,91.20
2017-09-10T03:43:41.833Z,90.90
2017-09-10T03:46:09.701Z,91.00
2017-09-10T03:48:37.567Z,91.10
2017-09-10T03:51:05.436Z,91.00
2017-09-10T03:53:33.302Z,91.30
2017-09-10T03:56:01.171Z,91.00
2017-09-10T03:58:29.036Z,90.70
2017-09-10T04:00:56.905Z,91.10
2017-09-10T04:03:24.697Z,91.10
2017-09-10T04:05:52.531Z,90.80
2017-09-10T04:08:20.404Z,90.50
2017-09-10T04:10:48.271Z,90.80
2017-09-10T04:13:16.140Z,90.70
2017-09-10T04:15:44.006Z,90.40
2017-09-10T04:18:11.875Z,90.50
2017-09-10T04:20:39.741Z,90.90
2017-09-10T04:23:07.612Z,91.00
2017-09-10T04:25:35.479Z,90.80
2017-09-10T04:28:03.345Z,90.50
2017-09-10T04:30:31.214Z,90.70
2017-09-10T04:32:59.081Z,90.60
2017-09-10T04:35:26.948Z,90.50
2017-09-10T04:37:54.816Z,90.60
2017-09-10T04:40:22.680Z,90.80
2017-09-10T04:42:50.546Z,90.70
2017-09-10T04:45:18.413Z,90.50
2017-09-10T04:47:46.279Z,90.40
2017-09-10T04:50:14.151Z,90.00
2017-09-10T04:52:42.014Z,90.00
2017-09-10T04:55:09.882Z,90.00
2017-09-10T04:57:37.749Z,90.00
2017-09-10T05:00:05.617Z,89.60
2017-09-10T05:02:33.485Z,89.50
2017-09-10T05:05:01.352Z,89.60
2017-09-10T05:07:29.219Z,90.30
2017-09-10T05:09:57.087Z,90.50
2017-09-10T05:12:24.953Z,90.80
2017-09-10T05:14:52.678Z,91.20
2017-09-10T05:17:20.483Z,91.80
2017-09-10T05:19:48.350Z,92.00
2017-09-10T05:22:16.219Z,92.10
2017-09-10T05:24:44.086Z,92.20
2017-09-10T05:27:11.957Z,92.20
2017-09-10T05:29:39.820Z,92.40
2017-09-10T05:32:07.687Z,92.20
2017-09-10T05:34:35.554Z,92.20
2017-09-10T05:37:03.421Z,92.20
2017-09-10T05:39:31.289Z,92.10
2017-09-10T05:41:59.156Z,91.90
2017-09-10T05:44:27.024Z,92.00
2017-09-10T05:46:54.891Z,92.00
2017-09-10T05:49:22.759Z,92.00
2017-09-10T05:51:50.625Z,91.90
2017-09-10T05:54:18.493Z,91.80
2017-09-10T05:56:46.359Z,91.70
2017-09-10T05:59:14.227Z,91.50
2017-09-10T06:01:42.095Z,91.80
2017-09-10T06:04:09.889Z,91.60
2017-09-10T06:06:38.444Z,91.40
2017-09-10T06:09:06.311Z,91.40
2017-09-10T06:11:34.183Z,91.10
2017-09-10T06:14:02.045Z,91.30
2017-09-10T06:16:29.914Z,91.40
2017-09-10T06:18:57.781Z,91.50
2017-09-10T06:21:25.750Z,91.20
2017-09-10T06:23:53.617Z,91.30
2017-09-10T06:26:21.485Z,91.30
2017-09-10T06:28:49.352Z,90.80
2017-09-10T06:31:17.219Z,91.00
2017-09-10T06:33:45.086Z,91.30
2017-09-10T06:36:12.957Z,91.60
2017-09-10T06:38:40.821Z,91.70
2017-09-10T06:41:08.688Z,91.30
2017-09-10T06:43:36.555Z,91.00
2017-09-10T06:46:04.422Z,90.90
2017-09-10T06:48:32.290Z,90.60
2017-09-10T06:51:00.158Z,90.70
2017-09-10T06:53:28.025Z,90.20
2017-09-10T06:55:55.892Z,90.40
2017-09-10T06:58:23.761Z,90.10
2017-09-10T07:00:51.626Z,90.30
2017-09-10T07:03:19.494Z,90.10
2017-09-10T07:05:47.361Z,90.20
2017-09-10T07:08:15.229Z,90.10
2017-09-10T07:10:43.095Z,90.20
2017-09-10T07:13:10.963Z,90.00
2017-09-10T07:15:38.830Z,90.00
2017-09-10T07:18:06.698Z,89.50
2017-09-10T07:20:34.565Z,89.30
2017-09-10T07:23:02.534Z,89.90
2017-09-10T07:25:30.402Z,88.60
2017-09-10T07:27:58.269Z,86.70
2017-09-10T07:30:26.142Z,83.80
2017-09-10T07:32:54.006Z,82.00
2017-09-10T07:35:21.874Z,82.90
2017-09-10T07:37:49.747Z,80.80
2017-09-10T07:40:17.610Z,81.40
2017-09-10T07:42:45.478Z,82.50
2017-09-10T07:45:13.344Z,83.60
2017-09-10T07:47:41.209Z,84.20
2017-09-10T07:50:09.075Z,85.50
2017-09-10T07:52:36.942Z,84.50
2017-09-10T07:55:04.810Z,85.40
2017-09-10T07:57:32.677Z,84.70
2017-09-10T08:00:00.545Z,85.20
2017-09-10T08:02:28.417Z,84.40
2017-09-10T08:04:56.279Z,85.40
2017-09-10T08:07:24.146Z,85.80
2017-09-10T08:09:52.013Z,83.70
2017-09-10T08:12:19.881Z,83.40
2017-09-10T08:14:47.749Z,82.30
2017-09-10T08:17:15.615Z,83.40
2017-09-10T08:19:43.482Z,82.80
2017-09-10T08:22:11.350Z,83.90
2017-09-10T08:24:39.218Z,82.60
2017-09-10T08:27:07.085Z,83.80
2017-09-10T08:29:34.952Z,84.60
2017-09-10T08:32:02.823Z,83.40
2017-09-10T08:34:30.687Z,80.70
2017-09-10T08:36:58.553Z,81.60
2017-09-10T08:39:26.422Z,82.80
2017-09-10T08:41:54.288Z,80.80
2017-09-10T08:44:22.155Z,81.70
2017-09-10T08:46:50.024Z,80.40
2017-09-10T08:49:17.889Z,80.10
2017-09-10T08:51:45.793Z,79.50
2017-09-10T08:54:14.447Z,79.70
2017-09-10T08:56:42.312Z,79.00
2017-09-10T08:59:10.178Z,79.50
2017-09-10T09:01:38.045Z,79.20
2017-09-10T09:04:05.914Z,75.30
2017-09-10T09:06:33.781Z,75.00
2017-09-10T09:09:01.648Z,76.60
2017-09-10T09:11:29.516Z,75.80
2017-09-10T09:13:57.382Z,74.00
2017-09-10T09:16:25.249Z,75.90
2017-09-10T09:18:53.117Z,76.30
2017-09-10T09:21:20.912Z,74.50
2017-09-10T09:23:48.673Z,73.20
2017-09-10T09:26:16.514Z,73.30
2017-09-10T09:28:44.382Z,72.00
2017-09-10T09:31:12.248Z,73.70
2017-09-10T09:33:39.954Z,72.30
2017-09-10T09:36:08.421Z,72.90
2017-09-10T09:38:36.130Z,72.90
2017-09-10T09:41:03.857Z,71.70
2017-09-10T09:43:32.330Z,70.50
2017-09-10T09:46:00.038Z,70.40
2017-09-10T09:48:27.741Z,67.60
2017-09-10T09:50:55.452Z,67.70
2017-09-10T09:53:23.206Z,68.20
2017-09-10T09:55:50.910Z,66.90
2017-09-10T09:58:18.622Z,69.30
2017-09-10T10:00:47.168Z,67.50
2017-09-10T10:03:15.039Z,67.50
2017-09-10T10:05:42.902Z,68.80
2017-09-10T10:08:10.770Z,69.00
2017-09-10T10:10:38.492Z,70.10
2017-09-10T10:13:06.204Z,70.30
2017-09-10T10:15:34.695Z,70.80
2017-09-10T10:18:02.402Z,70.80
2017-09-10T10:20:30.159Z,72.50
2017-09-10T10:22:57.874Z,72.70
2017-09-10T10:25:25.581Z,71.80
2017-09-10T10:27:53.345Z,72.90
2017-09-10T10:30:21.097Z,72.80
2017-09-10T10:32:49.580Z,73.00
2017-09-10T10:35:18.074Z,73.10
2017-09-10T10:37:45.786Z,73.10
2017-09-10T10:40:13.497Z,73.10
2017-09-10T10:42:42.014Z,74.20
2017-09-10T10:45:09.730Z,74.30
2017-09-10T10:47:38.207Z,70.60
2017-09-10T10:50:05.918Z,70.60
2017-09-10T10:52:33.625Z,72.70
2017-09-10T10:55:01.335Z,68.80
2017-09-10T10:57:29.043Z,71.20
2017-09-10T10:59:56.785Z,67.90
2017-09-10T11:02:24.503Z,68.30
2017-09-10T11:04:52.979Z,62.50
2017-09-10T11:07:21.454Z,61.10
2017-09-10T11:09:49.937Z,62.40
2017-09-10T11:12:17.664Z,62.60
2017-09-10T11:14:45.371Z,61.80
2017-09-10T11:17:13.846Z,60.80
2017-09-10T11:19:42.323Z,58.50
2017-09-10T11:22:10.033Z,58.50
2017-09-10T11:24:37.745Z,58.10
2017-09-10T11:27:05.473Z,59.70
2017-09-10T11:29:33.178Z,57.60
2017-09-10T11:32:00.886Z,57.90
2017-09-10T11:34:28.593Z,57.30
2017-09-10T11:36:56.310Z,57.20
2017-09-10T11:39:24.026Z,57.70
2017-09-10T11:41:51.733Z,57.40
2017-09-10T11:44:19.447Z,57.00
2017-09-10T11:46:47.205Z,58.70
2017-09-10T11:49:14.921Z,57.30
2017-09-10T11:51:42.634Z,57.10
2017-09-10T11:54:10.350Z,57.00
2017-09-10T11:56:38.058Z,57.70
2017-09-10T11:59:05.786Z,58.30
2017-09-10T12:01:33.503Z,58.40
2017-09-10T12:04:01.258Z,57.20
2017-09-10T12:06:29.014Z,58.30
2017-09-10T12:08:56.727Z,59.20
2017-09-10T12:11:24.434Z,61.40
2017-09-10T12:13:52.143Z,58.60
2017-09-10T12:16:20.613Z,58.20
2017-09-10T12:18:48.337Z,58.10
2017-09-10T12:21:16.050Z,58.80
2017-09-10T12:23:44.523Z,58.90
2017-09-10T12:26:13.005Z,57.30
2017-09-10T12:28:41.481Z,58.80
2017-09-10T12:31:09.205Z,58.70
2017-09-10T12:33:36.930Z,57.40
2017-09-10T12:36:05.403Z,60.60
2017-09-10T12:38:33.881Z,58.10
2017-09-10T12:41:02.357Z,57.50
2017-09-10T12:43:30.079Z,58.00
2017-09-10T12:45:57.785Z,54.80
2017-09-10T12:48:25.491Z,55.70
2017-09-10T12:50:53.232Z,55.20
2017-09-10T12:53:20.945Z,55.70
2017-09-10T12:55:48.661Z,56.00
2017-09-10T12:58:17.134Z,54.80
2017-09-10T13:00:44.841Z,54.80
2017-09-10T13:03:13.239Z,52.10
2017-09-10T13:05:40.947Z,53.30
2017-09-10T13:08:09.425Z,55.20
2017-09-10T13:10:37.906Z,54.00
2017-09-10T13:13:06.386Z,54.10
2017-09-10T13:15:34.866Z,53.40
2017-09-10T13:18:03.352Z,54.20
2017-09-10T13:20:31.846Z,52.40
2017-09-10T13:22:59.561Z,52.40
2017-09-10T13:25:27.274Z,52.60
2017-09-10T13:27:54.990Z,54.10
2017-09-10T13:30:22.706Z,53.50
2017-09-10T13:32:50.413Z,52.90
2017-09-10T13:35:18.279Z,51.00
2017-09-10T13:37:46.146Z,50.90
2017-09-10T13:40:14.013Z,50.70
2017-09-10T13:42:41.881Z,50.70
2017-09-10T13:45:09.748Z,49.90
2017-09-10T13:47:37.458Z,51.40
2017-09-10T13:50:05.170Z,51.90
2017-09-10T13:52:32.941Z,50.50
2017-09-10T13:55:00.645Z,51.20
2017-09-10T13:57:29.125Z,51.70
2017-09-10T13:59:57.605Z,52.10
2017-09-10T14:02:26.082Z,52.40
2017-09-10T14:04:54.566Z,54.70
2017-09-10T14:07:23.049Z,54.30
2017-09-10T14:09:50.806Z,54.20
2017-09-10T14:12:19.293Z,53.50
2017-09-10T14:14:47.769Z,55.20
2017-09-10T14:17:16.250Z,55.30
2017-09-10T14:19:44.730Z,54.40
2017-09-10T14:22:13.215Z,54.60
2017-09-10T14:24:41.689Z,56.90
2017-09-10T14:27:09.418Z,56.90
2017-09-10T14:29:37.139Z,55.80
2017-09-10T14:32:05.621Z,55.10
2017-09-10T14:34:33.409Z,55.10
2017-09-10T14:37:01.123Z,56.30
2017-09-10T14:39:28.833Z,56.60
2017-09-10T14:41:56.550Z,55.80
2017-09-10T14:44:24.302Z,55.20
2017-09-10T14:46:52.042Z,55.40
2017-09-10T14:49:19.765Z,56.30
2017-09-10T14:51:48.274Z,54.50
2017-09-10T14:54:15.990Z,54.40
2017-09-10T14:56:43.838Z,56.20
2017-09-10T14:59:11.706Z,56.60
2017-09-10T15:01:39.574Z,57.00
2017-09-10T15:04:07.441Z,57.00
2017-09-10T15:06:35.158Z,55.90
2017-09-10T15:09:02.898Z,57.00
2017-09-10T15:11:31.370Z,55.40
2017-09-10T15:13:59.218Z,55.40
2017-09-10T15:16:27.085Z,56.50
2017-09-10T15:18:54.952Z,56.70
2017-09-10T15:21:22.819Z,56.10
2017-09-10T15:23:50.686Z,56.10
2017-09-10T15:26:18.554Z,56.40
2017-09-10T15:28:46.422Z,57.60
2017-09-10T15:31:14.288Z,57.40
2017-09-10T15:33:42.156Z,56.20
2017-09-10T15:36:10.023Z,56.90
2017-09-10T15:38:37.890Z,58.20
2017-09-10T15:41:05.757Z,57.80
2017-09-10T15:43:33.625Z,56.20
2017-09-10T15:46:01.492Z,57.20
2017-09-10T15:48:29.207Z,56.30
2017-09-10T15:50:57.022Z,56.10
2017-09-10T15:53:24.889Z,56.10
2017-09-10T15:55:52.758Z,57.70
2017-09-10T15:58:20.623Z,57.50
2017-09-10T16:00:48.491Z,57.10
2017-09-10T16:03:16.362Z,56.70
2017-09-10T16:05:44.226Z,56.90
2017-09-10T16:08:12.092Z,57.20
2017-09-10T16:10:39.965Z,57.20
2017-09-10T16:13:07.829Z,57.60
2017-09-10T16:15:35.694Z,57.70
2017-09-10T16:18:04.381Z,57.00
2017-09-10T16:20:36.857Z,58.60
2017-09-10T16:23:06.157Z,58.80
2017-09-10T16:25:33.959Z,58.40
2017-09-10T16:28:05.952Z,58.00
2017-09-10T16:30:33.971Z,57.30
2017-09-10T16:33:01.825Z,58.50
2017-09-10T16:35:29.535Z,57.90
2017-09-10T16:37:57.355Z,58.30
2017-09-10T16:40:25.222Z,58.90
2017-09-10T16:42:53.090Z,58.60
2017-09-10T16:45:20.802Z,59.00
2017-09-10T16:47:48.520Z,58.80
2017-09-10T16:50:16.383Z,59.50
2017-09-10T16:52:44.251Z,59.40
2017-09-10T16:55:12.119Z,59.80
2017-09-10T16:57:39.986Z,60.10
2017-09-10T17:00:07.859Z,59.60
2017-09-10T17:02:35.727Z,61.10
2017-09-10T17:05:03.591Z,60.70
2017-09-10T17:07:31.457Z,61.20
2017-09-10T17:09:59.327Z,61.30
2017-09-10T17:12:27.125Z,61.50
2017-09-10T17:14:55.778Z,62.50
2017-09-10T17:17:23.644Z,62.50
2017-09-10T17:19:51.514Z,63.00
2017-09-10T17:22:19.376Z,63.60
2017-09-10T17:24:47.244Z,63.90
2017-09-10T17:27:15.109Z,63.80
2017-09-10T17:29:42.979Z,64.20
2017-09-10T17:32:10.845Z,64.90
2017-09-10T17:34:38.711Z,65.10
2017-09-10T17:37:06.574Z,65.30
2017-09-10T17:39:34.277Z,65.40
2017-09-10T17:42:02.754Z,65.80
2017-09-10T17:44:31.234Z,66.90
2017-09-10T17:46:59.897Z,66.90
2017-09-10T17:49:27.609Z,66.90
2017-09-10T17:51:55.362Z,67.10
2017-09-10T17:54:23.934Z,68.30
2017-09-10T17:56:52.590Z,68.90
2017-09-10T17:59:20.458Z,68.90
2017-09-10T18:01:48.324Z,68.90
2017-09-10T18:04:16.191Z,69.50
2017-09-10T18:06:44.060Z,69.30
2017-09-10T18:09:11.927Z,69.20
2017-09-10T18:11:39.797Z,69.60
2017-09-10T18:14:07.662Z,70.10
2017-09-10T18:16:35.379Z,70.70
2017-09-10T18:19:03.134Z,71.10
2017-09-10T18:21:31.691Z,71.70
2017-09-10T18:23:59.402Z,71.80
2017-09-10T18:26:27.117Z,71.40
2017-09-10T18:28:54.869Z,71.50
2017-09-10T18:31:22.631Z,71.70
2017-09-10T18:33:50.390Z,72.00
2017-09-10T18:36:18.263Z,72.20
2017-09-10T18:38:45.985Z,71.60
2017-09-10T18:41:13.697Z,71.70
2017-09-10T18:43:41.411Z,72.50
2017-09-10T18:46:09.123Z,72.80
2017-09-10T18:48:36.890Z,72.90
2017-09-10T18:51:04.749Z,72.80
2017-09-10T18:53:32.542Z,75.70
2017-09-10T18:56:01.023Z,75.30
2017-09-10T18:58:29.545Z,75.10
2017-09-10T19:00:57.251Z,75.70
2017-09-10T19:03:24.966Z,74.60
2017-09-10T19:05:52.717Z,74.90
2017-09-10T19:08:20.427Z,74.90
2017-09-10T19:10:48.163Z,74.80
2017-09-10T19:13:15.938Z,74.70
2017-09-10T19:15:43.667Z,75.10
2017-09-10T19:18:12.200Z,75.00
2017-09-10T19:20:39.910Z,75.00
2017-09-10T19:23:08.387Z,77.50
2017-09-10T19:25:36.223Z,77.50
2017-09-10T19:28:03.928Z,76.50
2017-09-10T19:30:32.424Z,79.90
2017-09-10T19:33:00.139Z,79.90
2017-09-10T19:35:28.487Z,82.20
2017-09-10T19:37:57.243Z,84.70
2017-09-10T19:40:25.726Z,84.40
2017-09-10T19:42:54.207Z,85.20
2017-09-10T19:45:22.693Z,84.60
2017-09-10T19:47:51.328Z,83.60
2017-09-10T19:50:19.197Z,83.70
2017-09-10T19:52:46.913Z,84.90
2017-09-10T19:55:14.634Z,84.70
2017-09-10T19:57:42.344Z,84.10
2017-09-10T20:00:10.092Z,85.00
2017-09-10T20:02:38.568Z,85.50
2017-09-10T20:05:07.062Z,82.10
2017-09-10T20:07:35.536Z,80.20
2017-09-10T20:10:04.026Z,81.50
2017-09-10T20:12:32.664Z,80.20
2017-09-10T20:15:00.538Z,80.10
2017-09-10T20:17:28.402Z,79.30
2017-09-10T20:19:56.269Z,78.80
2017-09-10T20:22:24.032Z,78.80
2017-09-10T20:24:51.801Z,79.00
2017-09-10T20:27:19.579Z,79.20
2017-09-10T20:29:47.432Z,78.40
2017-09-10T20:32:15.298Z,78.20
2017-09-10T20:34:43.166Z,78.20
2017-09-10T20:37:10.874Z,78.20
2017-09-10T20:39:39.347Z,78.30
2017-09-10T20:42:07.995Z,77.90
2017-09-10T20:44:35.861Z,77.90
2017-09-10T20:47:03.618Z,77.50
2017-09-10T20:49:31.321Z,77.40
2017-09-10T20:51:59.872Z,77.80
2017-09-10T20:54:27.739Z,77.80
2017-09-10T20:56:55.607Z,77.70
2017-09-10T20:59:23.405Z,77.40
2017-09-10T21:01:51.882Z,77.70
2017-09-10T21:04:20.366Z,77.50
2017-09-10T21:06:48.842Z,79.20
2017-09-10T21:09:16.564Z,79.20
2017-09-10T21:11:44.326Z,80.40
2017-09-10T21:14:12.111Z,80.70
2017-09-10T21:16:40.081Z,81.20
2017-09-10T21:19:07.953Z,81.60
2017-09-10T21:21:35.816Z,82.10
2017-09-10T21:24:03.688Z,82.60
2017-09-10T21:26:31.402Z,82.80
2017-09-10T21:28:59.213Z,82.60
2017-09-10T21:31:27.005Z,82.30
2017-09-10T21:33:54.730Z,82.30
2017-09-10T21:36:22.610Z,82.10
2017-09-10T21:38:50.479Z,82.00
2017-09-10T21:41:18.344Z,81.80
2017-09-10T21:43:46.212Z,81.70
2017-09-10T21:46:14.079Z,81.70
2017-09-10T21:48:41.947Z,81.60
2017-09-10T21:51:09.712Z,82.10
2017-09-10T21:53:37.422Z,81.90
2017-09-10T21:56:05.241Z,82.20
2017-09-10T21:58:33.108Z,82.10
2017-09-10T22:01:00.976Z,82.10
2017-09-10T22:03:28.842Z,81.60
2017-09-10T22:05:56.554Z,82.20
2017-09-10T22:08:25.192Z,82.20
2017-09-10T22:10:52.901Z,82.10
2017-09-10T22:13:21.474Z,82.40
2017-09-10T22:15:50.023Z,82.20
2017-09-10T22:18:17.890Z,82.20
2017-09-10T22:20:45.757Z,82.70
2017-09-10T22:23:13.625Z,82.50
2017-09-10T22:25:41.357Z,82.60
2017-09-10T22:28:09.154Z,83.00
2017-09-10T22:30:37.022Z,82.70
2017-09-10T22:33:04.888Z,82.70
2017-09-10T22:35:32.747Z,83.90
2017-09-10T22:38:00.624Z,83.30
2017-09-10T22:40:28.491Z,83.80
2017-09-10T22:42:56.358Z,83.80
2017-09-10T22:45:24.225Z,84.10
2017-09-10T22:47:52.093Z,84.10
2017-09-10T22:50:19.845Z,84.90
2017-09-10T22:52:47.725Z,84.70
2017-09-10T22:55:15.592Z,84.60
2017-09-10T22:57:43.459Z,84.10
2017-09-10T23:00:11.327Z,84.10
2017-09-10T23:02:39.193Z,84.00
2017-09-10T23:05:07.061Z,84.10
2017-09-10T23:07:34.930Z,84.30
2017-09-10T23:10:02.796Z,84.40
2017-09-10T23:12:30.663Z,84.00
2017-09-10T23:14:58.533Z,84.00
2017-09-10T23:17:26.398Z,84.30
2017-09-10T23:19:54.265Z,84.60
2017-09-10T23:22:22.132Z,85.40
2017-09-10T23:24:49.926Z,85.60
2017-09-10T23:27:18.584Z,87.20
2017-09-10T23:29:46.287Z,86.80
2017-09-10T23:32:14.767Z,88.20
2017-09-10T23:34:43.417Z,88.20
2017-09-10T23:37:11.286Z,88.20
2017-09-10T23:39:39.153Z,88.40
2017-09-10T23:42:07.019Z,88.30
2017-09-10T23:44:34.887Z,88.40
2017-09-10T23:47:02.752Z,88.50
2017-09-10T23:49:30.618Z,88.80
2017-09-10T23:51:58.486Z,89.00
2017-09-10T23:54:26.353Z,88.70
2017-09-10T23:56:54.219Z,88.70
2017-09-10T23:59:21.933Z,88.60
